Weather at Espinho Airfield

Public forecast

Using degrees Celsius for public forecast. Weather courtesy of forecast.io.

Closest aviation weather report (METAR) to Espinho Airfield

Report is more than 6 hours old.

Closest report is Ovar Air Base, 3.5 nm (6.5 km) S. Retrieved 2020/10/30 18:00 UTC (9 hours ago):

LPOV 301800Z 00000KT 7000 NSC 17/14 Q1023

Closest aviation forecast (TAF) to Espinho Airfield

Forecast is more than 6 hours old.

Closest forecast is Ovar Air Base, 3.5 nm (6.5 km) S. Retrieved 2020/10/30 18:12 UTC (9 hours ago):

TAF LPOV 301707Z 3018/3118 VRB02KT CAVOK PROB40 3020/3102 4000 BR BECMG 3106/3108 18008KT BECMG 3111/3113 32008KT